Buffalo, New York
Current Conditions -  °F | °C
As of 12:54 AM on Saturday 25 Oct 2014 (Local Time) from KBUF Reporting Station
Overcast Overcast  
Wind Chill: 11°   Ceiling: 4300
Heat Index: 11°   Visibility: 8mi
Dew Point:   Wind: 5mph
Humidity: 83%   Direction: 200°SSW
Pressure: 29.92"   Gusts: NA
Location:  42.89°N, 78.88°W
Report Text: KBUF 250454Z 20004KT 8SM OVC043 11/08 A2992 RMK AO2 SLP134 T01110083 401220033
Loading
Personal Weather Stations






























Interactive Weather Map
Tropical Storm Tracking
New forecast layout! Learn more

10-Day Weather Forecast

Advertisements
Track Severe Weather on mobile